Derby, Australia
Current Conditions -  °F | °C
As of 9:30 AM on Sunday 26 Oct 2014 (Local Time) from YCIN Reporting Station
Clear Clear  
Wind Chill: 93°   Ceiling: Unl
Heat Index: 99°   Visibility: NA
Dew Point: 70°   Wind: 7mph
Humidity: 46%   Direction: 330°NNW
Pressure: 29.88"   Gusts: NA
Location:  17.37°S, 123.67°E
Report Text: YCIN 260130Z AUTO 33006KT 300V360 //// // NCD 34/21 Q1012
Loading
Personal Weather Stations






























Interactive Weather Map
Tropical Storm Tracking
New forecast layout! Learn more

10-Day Weather Forecast

Advertisements
Track Severe Weather on mobile